sensor_id;sensor_type;location;lat;lon;timestamp;pressure;altitude;pressure_sealevel;temperature;humidity
37066;BME280;22981;43.080;25.550;2023-08-06T00:00:13;98172.23;;;26.31;57.32
37066;BME280;22981;43.080;25.550;2023-08-06T00:02:40;98173.23;;;26.33;57.44
37066;BME280;22981;43.080;25.550;2023-08-06T00:05:08;98191.86;;;26.33;57.44
37066;BME280;22981;43.080;25.550;2023-08-06T00:07:36;98181.56;;;26.36;57.49
37066;BME280;22981;43.080;25.550;2023-08-06T00:10:03;98189.79;;;26.36;57.65
37066;BME280;22981;43.080;25.550;2023-08-06T00:12:31;98198.91;;;26.40;57.63
37066;BME280;22981;43.080;25.550;2023-08-06T00:14:59;98208.05;;;26.44;57.53
37066;BME280;22981;43.080;25.550;2023-08-06T00:17:26;98218.97;;;26.51;57.45
37066;BME280;22981;43.080;25.550;2023-08-06T00:19:54;98227.30;;;26.54;57.32
37066;BME280;22981;43.080;25.550;2023-08-06T00:22:21;98233.52;;;26.51;56.98
37066;BME280;22981;43.080;25.550;2023-08-06T00:24:49;98234.22;;;26.42;56.36
37066;BME280;22981;43.080;25.550;2023-08-06T00:27:16;98229.15;;;26.34;55.63
37066;BME280;22981;43.080;25.550;2023-08-06T00:29:44;98227.40;;;26.20;55.15
37066;BME280;22981;43.080;25.550;2023-08-06T00:32:11;98231.73;;;26.05;54.83
37066;BME280;22981;43.080;25.550;2023-08-06T00:34:39;98246.08;;;25.92;54.73
37066;BME280;22981;43.080;25.550;2023-08-06T00:37:07;98247.39;;;25.83;54.70
37066;BME280;22981;43.080;25.550;2023-08-06T00:39:34;98245.21;;;25.76;54.73
37066;BME280;22981;43.080;25.550;2023-08-06T00:42:02;98250.59;;;25.72;54.72
37066;BME280;22981;43.080;25.550;2023-08-06T00:44:29;98255.75;;;25.68;54.65
37066;BME280;22981;43.080;25.550;2023-08-06T00:46:57;98251.09;;;25.62;54.67
37066;BME280;22981;43.080;25.550;2023-08-06T00:49:25;98254.53;;;25.59;54.71
37066;BME280;22981;43.080;25.550;2023-08-06T00:51:53;98258.78;;;25.57;54.73
37066;BME280;22981;43.080;25.550;2023-08-06T00:54:21;98251.94;;;25.51;54.64
37066;BME280;22981;43.080;25.550;2023-08-06T00:56:48;98251.61;;;25.46;54.55
37066;BME280;22981;43.080;25.550;2023-08-06T00:59:16;98261.66;;;25.42;54.47
37066;BME280;22981;43.080;25.550;2023-08-06T01:01:44;98252.44;;;25.40;54.42
37066;BME280;22981;43.080;25.550;2023-08-06T01:04:13;98264.08;;;25.37;54.30
37066;BME280;22981;43.080;25.550;2023-08-06T01:06:48;98264.54;;;25.33;54.22
37066;BME280;22981;43.080;25.550;2023-08-06T01:09:25;98255.20;;;25.28;54.15
37066;BME280;22981;43.080;25.550;2023-08-06T01:12:11;98259.77;;;25.24;54.07
37066;BME280;22981;43.080;25.550;2023-08-06T01:14:47;98267.20;;;25.23;54.08
37066;BME280;22981;43.080;25.550;2023-08-06T01:17:14;98269.14;;;25.23;54.10
37066;BME280;22981;43.080;25.550;2023-08-06T01:19:42;98258.51;;;25.21;54.15
37066;BME280;22981;43.080;25.550;2023-08-06T01:22:10;98255.91;;;25.19;54.09
37066;BME280;22981;43.080;25.550;2023-08-06T01:24:37;98252.70;;;25.17;54.09
37066;BME280;22981;43.080;25.550;2023-08-06T01:27:13;98254.20;;;25.14;54.14
37066;BME280;22981;43.080;25.550;2023-08-06T01:29:52;98250.78;;;25.11;54.29
37066;BME280;22981;43.080;25.550;2023-08-06T01:32:16;98245.73;;;25.07;54.39
37066;BME280;22981;43.080;25.550;2023-08-06T01:34:45;98246.77;;;25.03;54.34
37066;BME280;22981;43.080;25.550;2023-08-06T01:37:13;98241.19;;;24.99;54.37
37066;BME280;22981;43.080;25.550;2023-08-06T01:39:43;98238.01;;;24.97;54.34
37066;BME280;22981;43.080;25.550;2023-08-06T01:42:10;98242.66;;;24.96;54.24
37066;BME280;22981;43.080;25.550;2023-08-06T01:44:38;98244.95;;;24.94;54.18
37066;BME280;22981;43.080;25.550;2023-08-06T01:47:05;98242.22;;;24.94;54.11
37066;BME280;22981;43.080;25.550;2023-08-06T01:49:33;98238.47;;;24.93;54.07
37066;BME280;22981;43.080;25.550;2023-08-06T01:52:00;98236.05;;;24.91;53.94
37066;BME280;22981;43.080;25.550;2023-08-06T01:54:28;98238.79;;;24.91;53.80
37066;BME280;22981;43.080;25.550;2023-08-06T01:56:55;98234.25;;;24.89;53.71
37066;BME280;22981;43.080;25.550;2023-08-06T01:59:24;98234.25;;;24.89;53.69
37066;BME280;22981;43.080;25.550;2023-08-06T02:01:52;98228.55;;;24.88;53.64
37066;BME280;22981;43.080;25.550;2023-08-06T02:04:19;98230.47;;;24.88;53.58
37066;BME280;22981;43.080;25.550;2023-08-06T02:06:47;98225.70;;;24.85;53.66
37066;BME280;22981;43.080;25.550;2023-08-06T02:09:14;98226.27;;;24.84;53.68
37066;BME280;22981;43.080;25.550;2023-08-06T02:11:42;98225.01;;;24.82;53.66
37066;BME280;22981;43.080;25.550;2023-08-06T02:14:10;98225.36;;;24.80;53.77
37066;BME280;22981;43.080;25.550;2023-08-06T02:16:38;98229.35;;;24.77;53.79
37066;BME280;22981;43.080;25.550;2023-08-06T02:19:05;98234.23;;;24.71;54.06
37066;BME280;22981;43.080;25.550;2023-08-06T02:21:33;98229.25;;;24.67;54.14
37066;BME280;22981;43.080;25.550;2023-08-06T02:24:00;98226.72;;;24.62;54.28
37066;BME280;22981;43.080;25.550;2023-08-06T02:26:28;98229.91;;;24.58;54.53
37066;BME280;22981;43.080;25.550;2023-08-06T02:28:55;98225.25;;;24.52;54.74
37066;BME280;22981;43.080;25.550;2023-08-06T02:31:23;98236.08;;;24.42;54.97
37066;BME280;22981;43.080;25.550;2023-08-06T02:33:51;98232.08;;;24.40;54.92
37066;BME280;22981;43.080;25.550;2023-08-06T02:36:20;98237.89;;;24.38;54.70
37066;BME280;22981;43.080;25.550;2023-08-06T02:38:47;98231.85;;;24.39;54.50
37066;BME280;22981;43.080;25.550;2023-08-06T02:41:15;98236.75;;;24.39;54.38
37066;BME280;22981;43.080;25.550;2023-08-06T02:43:42;98236.53;;;24.38;54.37
37066;BME280;22981;43.080;25.550;2023-08-06T02:46:10;98234.11;;;24.37;54.38
37066;BME280;22981;43.080;25.550;2023-08-06T02:48:37;98237.84;;;24.32;54.45
37066;BME280;22981;43.080;25.550;2023-08-06T02:51:05;98235.45;;;24.31;54.67
37066;BME280;22981;43.080;25.550;2023-08-06T02:53:32;98234.19;;;24.22;55.09
37066;BME280;22981;43.080;25.550;2023-08-06T02:56:00;98241.22;;;24.11;55.62
37066;BME280;22981;43.080;25.550;2023-08-06T02:58:28;98245.19;;;24.01;56.04
37066;BME280;22981;43.080;25.550;2023-08-06T03:01:04;98252.38;;;23.99;56.21
37066;BME280;22981;43.080;25.550;2023-08-06T03:03:32;98243.38;;;23.99;55.96
37066;BME280;22981;43.080;25.550;2023-08-06T03:06:00;98244.97;;;24.00;55.65
37066;BME280;22981;43.080;25.550;2023-08-06T03:08:28;98245.89;;;24.04;55.38
37066;BME280;22981;43.080;25.550;2023-08-06T03:10:56;98235.41;;;24.06;55.06
37066;BME280;22981;43.080;25.550;2023-08-06T03:13:24;98235.09;;;24.08;54.92
37066;BME280;22981;43.080;25.550;2023-08-06T03:15:58;98231.20;;;24.09;54.81
37066;BME280;22981;43.080;25.550;2023-08-06T03:18:27;98224.38;;;24.09;54.86
37066;BME280;22981;43.080;25.550;2023-08-06T03:20:54;98226.19;;;24.11;54.84
37066;BME280;22981;43.080;25.550;2023-08-06T03:23:23;98216.61;;;24.11;54.81
37066;BME280;22981;43.080;25.550;2023-08-06T03:25:51;98217.98;;;24.11;54.81
37066;BME280;22981;43.080;25.550;2023-08-06T03:28:18;98214.80;;;24.09;54.83
37066;BME280;22981;43.080;25.550;2023-08-06T03:30:46;98214.33;;;24.07;54.83
37066;BME280;22981;43.080;25.550;2023-08-06T03:33:13;98215.16;;;24.07;54.84
37066;BME280;22981;43.080;25.550;2023-08-06T03:35:41;98211.02;;;23.95;55.46
37066;BME280;22981;43.080;25.550;2023-08-06T03:38:08;98212.31;;;23.77;56.34
37066;BME280;22981;43.080;25.550;2023-08-06T03:40:36;98208.21;;;23.70;56.92
37066;BME280;22981;43.080;25.550;2023-08-06T03:43:03;98199.44;;;23.71;57.00
37066;BME280;22981;43.080;25.550;2023-08-06T03:45:31;98201.47;;;23.68;56.99
37066;BME280;22981;43.080;25.550;2023-08-06T03:47:59;98201.82;;;23.66;57.03
37066;BME280;22981;43.080;25.550;2023-08-06T03:50:26;98202.45;;;23.57;57.25
37066;BME280;22981;43.080;25.550;2023-08-06T03:52:54;98207.28;;;23.45;57.68
37066;BME280;22981;43.080;25.550;2023-08-06T03:55:21;98209.72;;;23.26;58.23
37066;BME280;22981;43.080;25.550;2023-08-06T03:57:49;98211.44;;;23.10;58.68
37066;BME280;22981;43.080;25.550;2023-08-06T04:00:16;98213.73;;;23.14;58.76
37066;BME280;22981;43.080;25.550;2023-08-06T04:02:44;98219.02;;;23.25;58.66
37066;BME280;22981;43.080;25.550;2023-08-06T04:05:12;98217.04;;;23.34;58.57
37066;BME280;22981;43.080;25.550;2023-08-06T04:07:40;98216.71;;;23.42;58.51
37066;BME280;22981;43.080;25.550;2023-08-06T04:10:08;98218.57;;;23.50;58.53
37066;BME280;22981;43.080;25.550;2023-08-06T04:12:35;98214.73;;;23.57;58.58
37066;BME280;22981;43.080;25.550;2023-08-06T04:15:06;98209.06;;;23.62;58.38
37066;BME280;22981;43.080;25.550;2023-08-06T04:17:34;98210.08;;;23.64;58.00
37066;BME280;22981;43.080;25.550;2023-08-06T04:20:01;98219.92;;;23.65;57.78
37066;BME280;22981;43.080;25.550;2023-08-06T04:22:30;98220.72;;;23.65;57.65
37066;BME280;22981;43.080;25.550;2023-08-06T04:24:57;98227.39;;;23.62;57.80
37066;BME280;22981;43.080;25.550;2023-08-06T04:27:25;98223.86;;;23.61;57.99
37066;BME280;22981;43.080;25.550;2023-08-06T04:29:52;98223.74;;;23.64;58.01
37066;BME280;22981;43.080;25.550;2023-08-06T04:32:20;98227.30;;;23.64;58.09
37066;BME280;22981;43.080;25.550;2023-08-06T04:34:47;98224.25;;;23.66;58.10
37066;BME280;22981;43.080;25.550;2023-08-06T04:37:15;98225.97;;;23.70;58.15
37066;BME280;22981;43.080;25.550;2023-08-06T04:39:43;98226.23;;;23.78;58.10
37066;BME280;22981;43.080;25.550;2023-08-06T04:42:10;98228.05;;;23.80;57.94
37066;BME280;22981;43.080;25.550;2023-08-06T04:44:38;98218.39;;;23.82;57.67
37066;BME280;22981;43.080;25.550;2023-08-06T04:47:05;98224.17;;;23.81;57.55
37066;BME280;22981;43.080;25.550;2023-08-06T04:49:33;98228.97;;;23.78;57.32
37066;BME280;22981;43.080;25.550;2023-08-06T04:52:01;98230.78;;;23.80;56.95
37066;BME280;22981;43.080;25.550;2023-08-06T04:54:28;98226.80;;;23.77;56.81
37066;BME280;22981;43.080;25.550;2023-08-06T04:56:56;98218.48;;;23.73;56.97
37066;BME280;22981;43.080;25.550;2023-08-06T04:59:23;98214.95;;;23.79;56.69
37066;BME280;22981;43.080;25.550;2023-08-06T05:01:51;98205.05;;;23.81;56.57
37066;BME280;22981;43.080;25.550;2023-08-06T05:04:18;98200.84;;;23.83;56.49
37066;BME280;22981;43.080;25.550;2023-08-06T05:06:46;98205.66;;;23.92;56.44
37066;BME280;22981;43.080;25.550;2023-08-06T05:09:13;98201.33;;;23.97;56.22
37066;BME280;22981;43.080;25.550;2023-08-06T05:11:41;98201.45;;;24.01;56.08
37066;BME280;22981;43.080;25.550;2023-08-06T05:14:08;98202.59;;;24.06;55.65
37066;BME280;22981;43.080;25.550;2023-08-06T05:16:36;98195.00;;;24.12;55.47
37066;BME280;22981;43.080;25.550;2023-08-06T05:19:04;98192.38;;;24.15;55.33
37066;BME280;22981;43.080;25.550;2023-08-06T05:21:31;98187.58;;;24.18;55.13
37066;BME280;22981;43.080;25.550;2023-08-06T05:23:59;98177.44;;;24.19;54.98
37066;BME280;22981;43.080;25.550;2023-08-06T05:26:26;98183.25;;;24.23;54.74
37066;BME280;22981;43.080;25.550;2023-08-06T05:28:54;98195.23;;;24.25;54.52
37066;BME280;22981;43.080;25.550;2023-08-06T05:31:21;98195.23;;;24.31;54.61
37066;BME280;22981;43.080;25.550;2023-08-06T05:33:49;98198.23;;;24.38;54.26
37066;BME280;22981;43.080;25.550;2023-08-06T05:36:16;98191.62;;;24.39;54.04
37066;BME280;22981;43.080;25.550;2023-08-06T05:38:44;98183.26;;;24.36;53.96
37066;BME280;22981;43.080;25.550;2023-08-06T05:41:11;98182.14;;;24.37;54.07
37066;BME280;22981;43.080;25.550;2023-08-06T05:43:39;98174.30;;;24.47;54.28
37066;BME280;22981;43.080;25.550;2023-08-06T05:46:07;98178.97;;;24.59;54.09
37066;BME280;22981;43.080;25.550;2023-08-06T05:48:34;98171.53;;;24.66;53.93
37066;BME280;22981;43.080;25.550;2023-08-06T05:51:02;98170.39;;;24.73;53.86
37066;BME280;22981;43.080;25.550;2023-08-06T05:53:30;98172.32;;;24.85;53.89
37066;BME280;22981;43.080;25.550;2023-08-06T05:55:57;98163.27;;;24.96;53.84
37066;BME280;22981;43.080;25.550;2023-08-06T05:58:25;98161.21;;;25.06;53.76
37066;BME280;22981;43.080;25.550;2023-08-06T06:00:54;98160.85;;;25.13;53.58
37066;BME280;22981;43.080;25.550;2023-08-06T06:03:21;98154.91;;;25.17;53.45
37066;BME280;22981;43.080;25.550;2023-08-06T06:05:49;98156.95;;;25.20;53.52
37066;BME280;22981;43.080;25.550;2023-08-06T06:08:17;98164.48;;;25.23;53.24
37066;BME280;22981;43.080;25.550;2023-08-06T06:10:44;98161.86;;;25.21;53.24
37066;BME280;22981;43.080;25.550;2023-08-06T06:13:12;98151.73;;;25.15;52.98
37066;BME280;22981;43.080;25.550;2023-08-06T06:15:40;98156.05;;;25.22;53.04
37066;BME280;22981;43.080;25.550;2023-08-06T06:18:07;98140.84;;;25.31;52.84
37066;BME280;22981;43.080;25.550;2023-08-06T06:20:35;98147.75;;;25.41;52.66
37066;BME280;22981;43.080;25.550;2023-08-06T06:23:02;98153.29;;;25.51;52.30
37066;BME280;22981;43.080;25.550;2023-08-06T06:25:30;98152.91;;;25.58;52.17
37066;BME280;22981;43.080;25.550;2023-08-06T06:27:57;98139.96;;;25.65;51.87
37066;BME280;22981;43.080;25.550;2023-08-06T06:30:25;98137.88;;;25.74;51.55
37066;BME280;22981;43.080;25.550;2023-08-06T06:32:53;98152.57;;;25.82;51.40
37066;BME280;22981;43.080;25.550;2023-08-06T06:35:20;98155.19;;;25.84;51.31
37066;BME280;22981;43.080;25.550;2023-08-06T06:37:48;98147.19;;;25.85;51.37
37066;BME280;22981;43.080;25.550;2023-08-06T06:40:15;98139.48;;;25.91;51.45
37066;BME280;22981;43.080;25.550;2023-08-06T06:42:43;98147.02;;;25.94;51.42
37066;BME280;22981;43.080;25.550;2023-08-06T06:45:10;98148.84;;;25.96;51.18
37066;BME280;22981;43.080;25.550;2023-08-06T06:47:38;98155.33;;;25.97;51.00
37066;BME280;22981;43.080;25.550;2023-08-06T06:50:06;98157.50;;;25.98;51.18
37066;BME280;22981;43.080;25.550;2023-08-06T06:52:34;98159.72;;;25.92;51.12
37066;BME280;22981;43.080;25.550;2023-08-06T06:55:01;98157.67;;;25.89;51.26
37066;BME280;22981;43.080;25.550;2023-08-06T06:57:29;98164.62;;;25.93;51.33
37066;BME280;22981;43.080;25.550;2023-08-06T06:59:56;98159.75;;;26.02;51.50
37066;BME280;22981;43.080;25.550;2023-08-06T07:02:24;98163.27;;;26.09;51.45
37066;BME280;22981;43.080;25.550;2023-08-06T07:04:52;98169.85;;;26.14;51.54
37066;BME280;22981;43.080;25.550;2023-08-06T07:07:19;98169.58;;;26.19;51.74
37066;BME280;22981;43.080;25.550;2023-08-06T07:09:47;98173.88;;;26.26;51.83
37066;BME280;22981;43.080;25.550;2023-08-06T07:12:14;98178.09;;;26.30;51.78
37066;BME280;22981;43.080;25.550;2023-08-06T07:14:42;98164.58;;;26.31;52.06
37066;BME280;22981;43.080;25.550;2023-08-06T07:17:09;98175.77;;;26.32;52.11
37066;BME280;22981;43.080;25.550;2023-08-06T07:19:37;98181.53;;;26.27;52.20
37066;BME280;22981;43.080;25.550;2023-08-06T07:22:04;98185.92;;;26.21;52.31
37066;BME280;22981;43.080;25.550;2023-08-06T07:24:32;98191.31;;;26.18;52.25
37066;BME280;22981;43.080;25.550;2023-08-06T07:27:00;98189.48;;;26.16;52.15
37066;BME280;22981;43.080;25.550;2023-08-06T07:29:27;98197.49;;;26.15;52.33
37066;BME280;22981;43.080;25.550;2023-08-06T07:31:55;98206.88;;;26.14;52.33
37066;BME280;22981;43.080;25.550;2023-08-06T07:34:22;98209.41;;;26.13;52.40
37066;BME280;22981;43.080;25.550;2023-08-06T07:36:50;98204.25;;;26.11;52.48
37066;BME280;22981;43.080;25.550;2023-08-06T07:39:17;98214.58;;;26.08;52.65
37066;BME280;22981;43.080;25.550;2023-08-06T07:41:45;98227.04;;;26.06;52.66
37066;BME280;22981;43.080;25.550;2023-08-06T07:44:12;98220.66;;;26.02;52.84
37066;BME280;22981;43.080;25.550;2023-08-06T07:46:41;98201.04;;;26.00;52.97
37066;BME280;22981;43.080;25.550;2023-08-06T07:49:10;98213.28;;;25.96;53.25
37066;BME280;22981;43.080;25.550;2023-08-06T07:51:37;98243.60;;;25.87;53.42
37066;BME280;22981;43.080;25.550;2023-08-06T07:54:06;98253.09;;;25.84;53.76
37066;BME280;22981;43.080;25.550;2023-08-06T07:56:33;98264.97;;;25.82;53.87
37066;BME280;22981;43.080;25.550;2023-08-06T07:59:03;98277.23;;;25.78;54.09
37066;BME280;22981;43.080;25.550;2023-08-06T08:01:30;98273.31;;;25.73;54.38
37066;BME280;22981;43.080;25.550;2023-08-06T08:03:58;98250.27;;;25.68;54.48
37066;BME280;22981;43.080;25.550;2023-08-06T08:06:25;98244.36;;;25.60;54.63
37066;BME280;22981;43.080;25.550;2023-08-06T08:08:53;98229.43;;;25.57;54.86
37066;BME280;22981;43.080;25.550;2023-08-06T08:11:20;98222.47;;;25.54;55.03
37066;BME280;22981;43.080;25.550;2023-08-06T08:13:48;98217.90;;;25.52;55.40
37066;BME280;22981;43.080;25.550;2023-08-06T08:16:16;98231.06;;;25.46;55.65
37066;BME280;22981;43.080;25.550;2023-08-06T08:18:43;98233.58;;;25.39;56.15
37066;BME280;22981;43.080;25.550;2023-08-06T08:21:11;98222.33;;;25.28;56.78
37066;BME280;22981;43.080;25.550;2023-08-06T08:23:38;98251.45;;;25.20;57.38
37066;BME280;22981;43.080;25.550;2023-08-06T08:26:08;98251.36;;;25.11;57.92
37066;BME280;22981;43.080;25.550;2023-08-06T09:47:57;98269.26;;;24.78;65.90
37066;BME280;22981;43.080;25.550;2023-08-06T09:50:28;98271.44;;;24.72;65.90
37066;BME280;22981;43.080;25.550;2023-08-06T09:52:55;98268.13;;;24.72;65.93
37066;BME280;22981;43.080;25.550;2023-08-06T09:55:24;98247.14;;;24.77;65.66
37066;BME280;22981;43.080;25.550;2023-08-06T09:57:54;98234.58;;;24.94;65.33
37066;BME280;22981;43.080;25.550;2023-08-06T10:00:23;98225.53;;;25.24;64.90
37066;BME280;22981;43.080;25.550;2023-08-06T10:02:51;98241.98;;;25.52;64.30
37066;BME280;22981;43.080;25.550;2023-08-06T10:05:22;98255.94;;;25.53;63.91
37066;BME280;22981;43.080;25.550;2023-08-06T10:07:51;98263.97;;;25.40;63.73
37066;BME280;22981;43.080;25.550;2023-08-06T10:10:19;98253.97;;;25.19;63.77
37066;BME280;22981;43.080;25.550;2023-08-06T10:12:49;98251.70;;;24.97;64.09
37066;BME280;22981;43.080;25.550;2023-08-06T10:15:22;98249.06;;;24.82;64.33
37066;BME280;22981;43.080;25.550;2023-08-06T10:17:53;98251.92;;;24.73;64.67
37066;BME280;22981;43.080;25.550;2023-08-06T10:20:21;98241.77;;;24.74;64.50
37066;BME280;22981;43.080;25.550;2023-08-06T10:23:04;98231.62;;;24.74;64.45
37066;BME280;22981;43.080;25.550;2023-08-06T10:25:39;98234.71;;;24.73;64.29
37066;BME280;22981;43.080;25.550;2023-08-06T10:28:09;98246.55;;;24.71;64.07
37066;BME280;22981;43.080;25.550;2023-08-06T10:30:45;98256.70;;;24.70;63.89
37066;BME280;22981;43.080;25.550;2023-08-06T10:33:14;98279.76;;;24.63;63.86
37066;BME280;22981;43.080;25.550;2023-08-06T10:35:49;98288.08;;;24.55;64.08
37066;BME280;22981;43.080;25.550;2023-08-06T10:38:29;98284.27;;;24.41;64.38
37066;BME280;22981;43.080;25.550;2023-08-06T10:43:32;98303.03;;;24.24;64.96
37066;BME280;22981;43.080;25.550;2023-08-06T10:45:58;98292.63;;;24.17;65.13
37066;BME280;22981;43.080;25.550;2023-08-06T12:54:18;98324.11;;;24.63;67.30
37066;BME280;22981;43.080;25.550;2023-08-06T12:56:48;98313.86;;;24.72;66.65
37066;BME280;22981;43.080;25.550;2023-08-06T12:59:17;98304.96;;;24.81;66.60
37066;BME280;22981;43.080;25.550;2023-08-06T13:01:45;98296.40;;;24.95;66.78
37066;BME280;22981;43.080;25.550;2023-08-06T13:04:13;98287.63;;;25.02;66.33
37066;BME280;22981;43.080;25.550;2023-08-06T13:06:41;98279.18;;;25.13;66.17
37066;BME280;22981;43.080;25.550;2023-08-06T13:09:09;98281.57;;;25.20;66.22
37066;BME280;22981;43.080;25.550;2023-08-06T13:11:43;98275.41;;;25.23;65.87
37066;BME280;22981;43.080;25.550;2023-08-06T13:14:10;98259.06;;;25.33;65.49
37066;BME280;22981;43.080;25.550;2023-08-06T13:16:40;98266.02;;;25.37;65.33
37066;BME280;22981;43.080;25.550;2023-08-06T13:19:10;98264.54;;;25.33;64.61
37066;BME280;22981;43.080;25.550;2023-08-06T13:24:18;98254.84;;;25.30;64.70
37066;BME280;22981;43.080;25.550;2023-08-06T13:26:46;98239.89;;;25.33;64.35
37066;BME280;22981;43.080;25.550;2023-08-06T13:29:14;98239.86;;;25.39;64.36
37066;BME280;22981;43.080;25.550;2023-08-06T13:31:41;98236.33;;;25.39;63.90
37066;BME280;22981;43.080;25.550;2023-08-06T13:34:09;98233.11;;;25.43;64.55
37066;BME280;22981;43.080;25.550;2023-08-06T13:36:36;98241.33;;;25.49;64.26
37066;BME280;22981;43.080;25.550;2023-08-06T13:39:05;98244.50;;;25.57;63.53
37066;BME280;22981;43.080;25.550;2023-08-06T13:41:34;98240.61;;;25.52;63.06
37066;BME280;22981;43.080;25.550;2023-08-06T13:44:02;98235.71;;;25.52;63.22
37066;BME280;22981;43.080;25.550;2023-08-06T13:46:29;98244.25;;;25.56;63.31
37066;BME280;22981;43.080;25.550;2023-08-06T13:48:57;98238.77;;;25.62;63.03
37066;BME280;22981;43.080;25.550;2023-08-06T13:51:24;98238.40;;;25.70;63.04
37066;BME280;22981;43.080;25.550;2023-08-06T13:53:52;98233.81;;;25.74;63.09
37066;BME280;22981;43.080;25.550;2023-08-06T13:56:22;98241.02;;;25.79;63.31
37066;BME280;22981;43.080;25.550;2023-08-06T13:58:50;98245.12;;;25.79;63.12
37066;BME280;22981;43.080;25.550;2023-08-06T14:01:19;98245.45;;;25.83;62.73
37066;BME280;22981;43.080;25.550;2023-08-06T14:03:49;98240.97;;;25.85;62.29
37066;BME280;22981;43.080;25.550;2023-08-06T14:06:18;98236.60;;;25.90;62.30
37066;BME280;22981;43.080;25.550;2023-08-06T14:08:46;98235.69;;;25.92;62.02
37066;BME280;22981;43.080;25.550;2023-08-06T14:11:15;98211.20;;;25.71;61.90
37066;BME280;22981;43.080;25.550;2023-08-06T14:13:43;98229.43;;;25.85;61.74
37066;BME280;22981;43.080;25.550;2023-08-06T14:16:10;98224.16;;;25.86;61.37
37066;BME280;22981;43.080;25.550;2023-08-06T14:18:38;98218.13;;;25.87;61.08
37066;BME280;22981;43.080;25.550;2023-08-06T14:21:07;98220.94;;;25.90;61.06
37066;BME280;22981;43.080;25.550;2023-08-06T14:23:35;98232.37;;;25.92;60.98
37066;BME280;22981;43.080;25.550;2023-08-06T14:26:05;98231.89;;;25.96;61.00
37066;BME280;22981;43.080;25.550;2023-08-06T14:28:33;98237.91;;;26.02;60.72
37066;BME280;22981;43.080;25.550;2023-08-06T14:31:00;98228.62;;;26.07;60.70
37066;BME280;22981;43.080;25.550;2023-08-06T14:33:28;98225.86;;;26.13;60.58
37066;BME280;22981;43.080;25.550;2023-08-06T14:35:55;98227.09;;;26.15;60.31
37066;BME280;22981;43.080;25.550;2023-08-06T14:38:23;98231.30;;;26.19;60.31
37066;BME280;22981;43.080;25.550;2023-08-06T14:40:50;98229.83;;;26.15;59.93
37066;BME280;22981;43.080;25.550;2023-08-06T14:43:18;98229.83;;;26.15;59.97
37066;BME280;22981;43.080;25.550;2023-08-06T14:45:46;98231.99;;;26.16;59.91
37066;BME280;22981;43.080;25.550;2023-08-06T14:48:13;98225.38;;;26.17;59.77
37066;BME280;22981;43.080;25.550;2023-08-06T14:50:41;98226.39;;;26.18;59.70
37066;BME280;22981;43.080;25.550;2023-08-06T14:53:08;98234.41;;;26.17;59.46
37066;BME280;22981;43.080;25.550;2023-08-06T14:55:38;98235.22;;;26.12;59.32
37066;BME280;22981;43.080;25.550;2023-08-06T14:58:05;98240.39;;;26.07;59.40
37066;BME280;22981;43.080;25.550;2023-08-06T15:00:33;98241.45;;;26.03;59.56
37066;BME280;22981;43.080;25.550;2023-08-06T15:03:00;98233.89;;;26.06;59.77
37066;BME280;22981;43.080;25.550;2023-08-06T15:05:28;98238.44;;;26.08;59.07
37066;BME280;22981;43.080;25.550;2023-08-06T15:07:55;98238.22;;;26.07;58.86
37066;BME280;22981;43.080;25.550;2023-08-06T15:10:23;98241.76;;;26.07;59.06
37066;BME280;22981;43.080;25.550;2023-08-06T15:12:51;98235.94;;;26.09;59.06
37066;BME280;22981;43.080;25.550;2023-08-06T15:15:18;98243.23;;;26.11;59.19
37066;BME280;22981;43.080;25.550;2023-08-06T15:17:46;98246.07;;;26.14;59.28
37066;BME280;22981;43.080;25.550;2023-08-06T15:20:13;98235.41;;;26.19;59.54
37066;BME280;22981;43.080;25.550;2023-08-06T15:22:41;98241.27;;;26.17;59.38
37066;BME280;22981;43.080;25.550;2023-08-06T15:25:08;98239.89;;;26.17;59.09
37066;BME280;22981;43.080;25.550;2023-08-06T15:27:36;98245.49;;;26.15;58.90
37066;BME280;22981;43.080;25.550;2023-08-06T15:30:06;98240.39;;;26.07;59.03
37066;BME280;22981;43.080;25.550;2023-08-06T15:32:34;98243.71;;;26.07;59.06
37066;BME280;22981;43.080;25.550;2023-08-06T15:35:01;98246.36;;;26.03;58.75
37066;BME280;22981;43.080;25.550;2023-08-06T15:37:30;98244.77;;;26.02;58.52
37066;BME280;22981;43.080;25.550;2023-08-06T15:39:59;98242.39;;;26.01;58.68
37066;BME280;22981;43.080;25.550;2023-08-06T15:42:26;98233.44;;;26.04;58.93
37066;BME280;22981;43.080;25.550;2023-08-06T15:44:54;98232.42;;;26.02;58.76
37066;BME280;22981;43.080;25.550;2023-08-06T15:47:21;98233.58;;;26.01;58.58
37066;BME280;22981;43.080;25.550;2023-08-06T15:49:49;98231.75;;;25.99;58.74
37066;BME280;22981;43.080;25.550;2023-08-06T15:52:16;98235.64;;;25.98;59.16
37066;BME280;22981;43.080;25.550;2023-08-06T15:54:48;98242.50;;;25.98;59.15
37066;BME280;22981;43.080;25.550;2023-08-06T15:57:15;98246.77;;;25.95;59.10
37066;BME280;22981;43.080;25.550;2023-08-06T15:59:43;98244.35;;;25.94;58.97
37066;BME280;22981;43.080;25.550;2023-08-06T16:02:11;98246.41;;;25.91;58.95
37066;BME280;22981;43.080;25.550;2023-08-06T16:04:39;98190.17;;;25.47;58.86
37066;BME280;22981;43.080;25.550;2023-08-06T16:07:07;98250.57;;;25.85;59.10
37066;BME280;22981;43.080;25.550;2023-08-06T16:09:34;98251.27;;;25.82;59.37
37066;BME280;22981;43.080;25.550;2023-08-06T16:12:02;98252.77;;;25.79;59.80
37066;BME280;22981;43.080;25.550;2023-08-06T16:14:30;98254.02;;;25.76;60.04
37066;BME280;22981;43.080;25.550;2023-08-06T16:16:57;98251.38;;;25.73;60.60
37066;BME280;22981;43.080;25.550;2023-08-06T16:19:26;98249.22;;;25.72;61.36
37066;BME280;22981;43.080;25.550;2023-08-06T16:21:56;98244.67;;;25.70;61.99
37066;BME280;22981;43.080;25.550;2023-08-06T16:24:27;98242.05;;;25.68;62.02